Time;durP1;ratioP1;P1;durP2;ratioP2;P2;SDS_P1;SDS_P2;PMS_P1;PMS_P2;Temp;Humidity;BMP_temperature;BMP_pressure;BME280_temperature;BME280_humidity;BME280_pressure;Samples;Min_cycle;Max_cycle;Signal;HPM_P1;HPM_P2
2023/09/14 00:00:55;;;;;;;3.67;2.30;;;;;;;;;;5081901;28;20104;-73
2023/09/14 00:03:20;;;;;;;4.13;2.42;;;;;;;;;;5080266;28;20021;-73
2023/09/14 00:05:46;;;;;;;5.45;2.65;;;;;;;;;;5081942;28;20039;-73
2023/09/14 00:08:12;;;;;;;4.35;2.67;;;;;;;;;;5082272;28;20021;-73
2023/09/14 00:10:38;;;;;;;4.70;2.40;;;;;;;;;;5083276;28;20021;-70
2023/09/14 00:13:04;;;;;;;7.82;2.65;;;;;;;;;;5090545;28;20395;-71
2023/09/14 00:15:29;;;;;;;6.15;2.20;;;;;;;;;;5083758;28;20015;-71
2023/09/14 00:17:55;;;;;;;6.78;2.40;;;;;;;;;;5083944;28;20059;-71
2023/09/14 00:20:24;;;;;;;5.22;2.63;;;;;;;;;;5084140;28;20025;-71
2023/09/14 00:22:50;;;;;;;9.98;2.60;;;;;;;;;;5083189;28;20019;-71
2023/09/14 00:25:16;;;;;;;5.75;2.53;;;;;;;;;;5070882;28;20142;-71
2023/09/14 00:27:41;;;;;;;5.10;2.15;;;;;;;;;;5083716;28;20478;-71
2023/09/14 00:30:06;;;;;;;7.00;2.07;;;;;;;;;;5085144;28;20395;-71
2023/09/14 00:32:38;;;;;;;3.88;2.30;;;;;;;;;;5094254;28;20381;-71
2023/09/14 00:35:04;;;;;;;5.97;2.60;;;;;;;;;;5083152;28;20063;-73
2023/09/14 00:37:29;;;;;;;5.90;2.70;;;;;;;;;;5093761;28;20040;-73
2023/09/14 00:39:54;;;;;;;4.97;2.50;;;;;;;;;;5093981;28;20046;-72
2023/09/14 00:42:19;;;;;;;6.33;3.10;;;;;;;;;;5080555;28;20036;-72
2023/09/14 00:44:45;;;;;;;8.57;2.65;;;;;;;;;;5091767;28;20293;-72
2023/09/14 00:47:10;;;;;;;7.30;2.90;;;;;;;;;;5091410;28;20036;-72
2023/09/14 00:49:35;;;;;;;5.90;3.00;;;;;;;;;;5089188;28;20024;-71
2023/09/14 00:52:01;;;;;;;5.95;2.72;;;;;;;;;;5091515;28;20412;-71
2023/09/14 00:54:26;;;;;;;12.23;3.88;;;;;;;;;;5082826;28;20463;-71
2023/09/14 00:56:51;;;;;;;7.25;4.03;;;;;;;;;;5078260;28;20474;-71
2023/09/14 00:59:17;;;;;;;6.65;3.60;;;;;;;;;;5082710;28;20031;-71
2023/09/14 01:01:42;;;;;;;7.53;3.75;;;;;;;;;;5080179;28;20060;-71
2023/09/14 01:04:07;;;;;;;8.32;3.90;;;;;;;;;;5093183;28;20028;-71
2023/09/14 01:06:32;;;;;;;7.63;3.70;;;;;;;;;;5077906;28;20021;-71
2023/09/14 01:08:58;;;;;;;6.78;3.63;;;;;;;;;;5080723;28;20020;-71
2023/09/14 01:11:23;;;;;;;6.85;3.97;;;;;;;;;;5083589;28;20394;-70
2023/09/14 01:13:49;;;;;;;7.20;3.90;;;;;;;;;;5087382;28;20051;-70
2023/09/14 01:16:26;;;;;;;8.07;4.27;;;;;;;;;;5082247;28;20275;-70
2023/09/14 01:18:56;;;;;;;8.65;4.30;;;;;;;;;;5079389;28;20055;-70
2023/09/14 01:21:29;;;;;;;8.43;6.75;;;;;;;;;;5083390;28;20473;-72
2023/09/14 01:23:57;;;;;;;10.93;3.97;;;;;;;;;;5086205;28;20163;-72
2023/09/14 01:26:23;;;;;;;7.43;4.57;;;;;;;;;;5056784;28;20055;-72
2023/09/14 01:28:48;;;;;;;6.20;5.00;;;;;;;;;;5086636;28;20479;-73
2023/09/14 01:31:14;;;;;;;9.70;4.78;;;;;;;;;;5075059;28;20106;-73
2023/09/14 01:33:39;;;;;;;6.83;4.27;;;;;;;;;;5075556;28;20059;-73
2023/09/14 01:36:04;;;;;;;7.00;5.00;;;;;;;;;;5074433;28;20278;-73
2023/09/14 01:38:30;;;;;;;10.07;5.03;;;;;;;;;;5077294;28;20025;-73
2023/09/14 01:40:56;;;;;;;7.28;5.30;;;;;;;;;;5074498;28;20285;-73
2023/09/14 01:43:21;;;;;;;8.50;5.22;;;;;;;;;;5080857;28;20024;-73
2023/09/14 01:45:47;;;;;;;8.90;5.77;;;;;;;;;;5092608;28;20036;-72
2023/09/14 01:48:16;;;;;;;8.95;5.78;;;;;;;;;;5078372;28;20271;-72
2023/09/14 01:50:41;;;;;;;7.07;5.18;;;;;;;;;;5092201;28;20040;-72
2023/09/14 01:53:06;;;;;;;8.52;4.70;;;;;;;;;;5091954;28;20095;-72
2023/09/14 01:55:32;;;;;;;9.55;5.70;;;;;;;;;;5091883;28;20032;-72
2023/09/14 01:57:57;;;;;;;8.85;5.65;;;;;;;;;;5068475;28;20078;-72
2023/09/14 02:00:25;;;;;;;14.02;5.70;;;;;;;;;;5092203;28;20023;-72
2023/09/14 02:02:51;;;;;;;10.75;5.45;;;;;;;;;;5080537;28;20490;-72
2023/09/14 02:05:16;;;;;;;11.02;6.15;;;;;;;;;;5076976;28;20103;-72
2023/09/14 02:07:41;;;;;;;8.13;5.43;;;;;;;;;;5080604;28;20028;-72
2023/09/14 02:10:07;;;;;;;8.48;4.93;;;;;;;;;;5074860;28;20270;-73
2023/09/14 02:12:32;;;;;;;7.93;5.22;;;;;;;;;;5080402;28;20020;-73
2023/09/14 02:14:58;;;;;;;8.90;5.37;;;;;;;;;;5075282;28;20459;-70
2023/09/14 02:17:23;;;;;;;7.47;4.93;;;;;;;;;;5076216;28;20752;-70
2023/09/14 02:19:48;;;;;;;11.73;5.47;;;;;;;;;;5079250;28;20025;-71
2023/09/14 02:22:13;;;;;;;12.00;5.53;;;;;;;;;;5088075;28;20512;-71
2023/09/14 02:24:38;;;;;;;8.60;5.32;;;;;;;;;;5091206;28;20328;-71
2023/09/14 02:27:04;;;;;;;7.68;5.57;;;;;;;;;;5068525;28;20032;-70
2023/09/14 02:29:30;;;;;;;11.30;5.85;;;;;;;;;;5084616;28;20039;-70
2023/09/14 02:31:56;;;;;;;9.02;5.88;;;;;;;;;;5088564;28;20017;-70
2023/09/14 02:34:21;;;;;;;10.35;5.45;;;;;;;;;;5074941;28;20016;-71
2023/09/14 02:36:46;;;;;;;7.88;5.38;;;;;;;;;;5081723;28;20670;-70
2023/09/14 02:39:11;;;;;;;6.95;4.28;;;;;;;;;;5080927;28;20028;-73
2023/09/14 02:41:37;;;;;;;8.23;5.32;;;;;;;;;;5084967;28;20081;-73
2023/09/14 02:44:02;;;;;;;15.57;5.33;;;;;;;;;;5088040;28;20024;-73
2023/09/14 02:46:27;;;;;;;6.90;5.20;;;;;;;;;;5088997;28;20268;-74
2023/09/14 02:48:53;;;;;;;9.13;5.50;;;;;;;;;;5091374;28;20060;-73
2023/09/14 02:51:18;;;;;;;9.77;5.07;;;;;;;;;;5090343;28;20371;-73
2023/09/14 02:53:43;;;;;;;7.27;5.03;;;;;;;;;;5090301;28;20031;-73
2023/09/14 02:56:12;;;;;;;9.10;5.40;;;;;;;;;;5089624;28;20270;-73
2023/09/14 02:58:37;;;;;;;6.68;4.68;;;;;;;;;;5089908;28;20016;-73
2023/09/14 03:01:07;;;;;;;8.07;5.15;;;;;;;;;;5082036;28;20092;-73
2023/09/14 03:03:33;;;;;;;8.13;5.20;;;;;;;;;;5078092;28;20028;-73
2023/09/14 03:05:58;;;;;;;8.53;5.07;;;;;;;;;;5077572;28;20032;-70
2023/09/14 03:08:23;;;;;;;8.68;5.30;;;;;;;;;;5077373;28;20273;-70
2023/09/14 03:10:48;;;;;;;9.50;5.57;;;;;;;;;;5075931;28;20024;-70
2023/09/14 03:13:13;;;;;;;9.52;4.97;;;;;;;;;;5076443;28;20310;-70
2023/09/14 03:15:39;;;;;;;6.53;5.07;;;;;;;;;;5074585;28;20078;-70
2023/09/14 03:18:04;;;;;;;7.30;4.68;;;;;;;;;;5076161;28;20498;-70
2023/09/14 03:20:30;;;;;;;7.78;4.40;;;;;;;;;;5074330;28;20020;-70
2023/09/14 03:22:55;;;;;;;11.15;5.22;;;;;;;;;;5080486;28;20032;-70
2023/09/14 03:25:20;;;;;;;10.68;5.03;;;;;;;;;;5081659;28;20051;-70
2023/09/14 03:27:47;;;;;;;8.25;5.05;;;;;;;;;;5077532;28;20016;-70
2023/09/14 03:30:13;;;;;;;8.73;4.78;;;;;;;;;;5076439;28;20025;-70
2023/09/14 03:32:38;;;;;;;8.68;4.95;;;;;;;;;;5079590;28;20027;-70
2023/09/14 03:35:03;;;;;;;8.95;4.93;;;;;;;;;;5073263;28;20085;-70
2023/09/14 03:37:29;;;;;;;11.85;5.80;;;;;;;;;;5079644;28;20378;-70
2023/09/14 03:39:54;;;;;;;11.23;4.90;;;;;;;;;;5075534;28;20051;-70
2023/09/14 03:42:19;;;;;;;7.90;5.17;;;;;;;;;;5080626;28;20042;-70
2023/09/14 03:44:44;;;;;;;9.57;4.75;;;;;;;;;;5087763;28;20271;-70
2023/09/14 03:47:10;;;;;;;6.47;4.73;;;;;;;;;;5080628;28;20063;-70
2023/09/14 03:49:35;;;;;;;8.35;5.65;;;;;;;;;;5090455;28;20274;-71
2023/09/14 03:52:00;;;;;;;8.40;5.85;;;;;;;;;;5090907;28;20035;-71
2023/09/14 03:54:25;;;;;;;10.75;5.50;;;;;;;;;;5088308;28;20386;-70
2023/09/14 03:56:51;;;;;;;6.33;4.37;;;;;;;;;;5089589;28;20027;-70
2023/09/14 03:59:16;;;;;;;10.90;4.80;;;;;;;;;;5089222;28;20795;-71
2023/09/14 04:01:42;;;;;;;8.68;5.40;;;;;;;;;;5084832;28;20028;-71
2023/09/14 04:04:07;;;;;;;7.43;5.20;;;;;;;;;;5071656;28;20453;-71
2023/09/14 04:06:32;;;;;;;8.80;5.30;;;;;;;;;;5076120;28;20351;-71
2023/09/14 04:08:57;;;;;;;7.72;4.95;;;;;;;;;;5083879;28;20695;-72
2023/09/14 04:11:22;;;;;;;11.30;4.10;;;;;;;;;;5103566;28;20031;-71
2023/09/14 04:13:48;;;;;;;6.53;4.68;;;;;;;;;;5078644;28;20281;-71
2023/09/14 04:16:14;;;;;;;6.90;4.95;;;;;;;;;;5080503;28;20049;-70
2023/09/14 04:18:39;;;;;;;7.75;4.55;;;;;;;;;;5077769;28;20390;-71
2023/09/14 04:21:05;;;;;;;6.65;4.63;;;;;;;;;;5075875;28;20375;-71
2023/09/14 04:23:30;;;;;;;9.55;4.95;;;;;;;;;;5079312;28;20017;-71
2023/09/14 04:25:56;;;;;;;14.18;4.72;;;;;;;;;;5079686;28;20036;-71
2023/09/14 04:28:21;;;;;;;7.05;5.00;;;;;;;;;;5079515;28;20020;-72
2023/09/14 04:30:48;;;;;;;10.45;6.03;;;;;;;;;;5088522;28;20027;-72
2023/09/14 04:33:14;;;;;;;7.75;4.45;;;;;;;;;;5088632;28;20043;-71
2023/09/14 04:35:40;;;;;;;7.30;4.95;;;;;;;;;;5086307;28;20726;-71
2023/09/14 04:38:06;;;;;;;7.82;4.38;;;;;;;;;;5083332;28;20060;-70
2023/09/14 04:40:31;;;;;;;6.72;4.70;;;;;;;;;;5086724;28;20027;-72
2023/09/14 04:42:56;;;;;;;8.32;5.18;;;;;;;;;;5081592;28;20039;-71
2023/09/14 04:45:22;;;;;;;6.77;5.17;;;;;;;;;;5090947;28;20016;-71
2023/09/14 04:47:47;;;;;;;9.13;5.40;;;;;;;;;;5090167;28;20285;-71
2023/09/14 04:50:12;;;;;;;10.77;6.57;;;;;;;;;;5089955;28;20277;-72
2023/09/14 04:52:37;;;;;;;8.95;5.45;;;;;;;;;;5088141;28;20270;-71
2023/09/14 04:55:04;;;;;;;11.00;6.03;;;;;;;;;;5091056;28;20446;-71
2023/09/14 04:57:29;;;;;;;12.40;6.25;;;;;;;;;;5088094;28;20274;-71
2023/09/14 04:59:54;;;;;;;11.65;7.35;;;;;;;;;;5089759;28;20039;-72
2023/09/14 05:02:19;;;;;;;13.90;8.07;;;;;;;;;;5075346;28;20150;-71
2023/09/14 05:04:45;;;;;;;13.03;7.27;;;;;;;;;;5088571;28;20394;-71
2023/09/14 05:07:10;;;;;;;15.18;8.05;;;;;;;;;;5075128;28;20279;-71
2023/09/14 05:09:35;;;;;;;15.50;8.47;;;;;;;;;;5077673;28;20039;-70
2023/09/14 05:12:00;;;;;;;16.63;8.33;;;;;;;;;;5076325;28;20275;-70
2023/09/14 05:14:26;;;;;;;17.37;7.97;;;;;;;;;;5078766;28;20270;-71
2023/09/14 05:16:51;;;;;;;12.15;7.30;;;;;;;;;;5076022;28;20297;-71
2023/09/14 05:19:17;;;;;;;14.90;7.60;;;;;;;;;;5089248;28;20027;-71
2023/09/14 05:21:42;;;;;;;15.80;8.10;;;;;;;;;;5076705;28;20806;-71
2023/09/14 05:24:07;;;;;;;13.03;8.67;;;;;;;;;;5089174;28;20470;-71
2023/09/14 05:26:33;;;;;;;11.88;7.68;;;;;;;;;;5076233;28;20704;-71
2023/09/14 05:28:58;;;;;;;12.80;8.18;;;;;;;;;;5077686;28;20040;-71
2023/09/14 05:31:23;;;;;;;13.07;8.02;;;;;;;;;;5090951;28;20020;-71
2023/09/14 05:33:48;;;;;;;18.38;8.95;;;;;;;;;;5091003;28;20391;-71
2023/09/14 05:36:14;;;;;;;19.97;10.57;;;;;;;;;;5090951;28;20020;-71
2023/09/14 05:38:39;;;;;;;16.83;9.43;;;;;;;;;;5083689;28;20369;-71
2023/09/14 05:41:04;;;;;;;15.93;9.97;;;;;;;;;;5041661;28;20286;-71
2023/09/14 05:43:29;;;;;;;16.08;8.93;;;;;;;;;;5058445;28;20278;-70
2023/09/14 05:45:55;;;;;;;17.93;10.67;;;;;;;;;;5092477;28;20390;-71
2023/09/14 05:48:20;;;;;;;15.48;10.07;;;;;;;;;;5078472;28;20328;-71
2023/09/14 05:50:45;;;;;;;21.25;10.27;;;;;;;;;;5090660;28;20024;-71
2023/09/14 05:53:10;;;;;;;16.48;10.73;;;;;;;;;;5074892;28;20040;-71
2023/09/14 05:55:36;;;;;;;18.05;11.15;;;;;;;;;;5080258;28;20032;-71
2023/09/14 05:58:01;;;;;;;17.75;11.77;;;;;;;;;;5078957;28;20064;-71
2023/09/14 06:00:26;;;;;;;18.58;11.18;;;;;;;;;;5090887;28;20020;-71
2023/09/14 06:02:52;;;;;;;21.30;10.35;;;;;;;;;;5092109;28;20166;-71
2023/09/14 06:05:18;;;;;;;14.65;9.70;;;;;;;;;;5090875;28;20028;-71
2023/09/14 06:07:43;;;;;;;16.95;11.07;;;;;;;;;;5092509;28;20024;-71
2023/09/14 06:10:09;;;;;;;16.43;11.17;;;;;;;;;;5091648;28;20095;-71
2023/09/14 06:12:34;;;;;;;18.23;11.23;;;;;;;;;;5091162;28;20270;-71
2023/09/14 06:14:59;;;;;;;14.65;11.00;;;;;;;;;;5090459;28;20016;-71
2023/09/14 06:17:24;;;;;;;15.90;9.73;;;;;;;;;;5092511;28;20042;-71
2023/09/14 06:19:50;;;;;;;13.85;10.00;;;;;;;;;;5075099;28;20278;-71
2023/09/14 06:22:15;;;;;;;15.80;10.52;;;;;;;;;;5039142;28;20032;-71
2023/09/14 06:24:40;;;;;;;17.48;11.05;;;;;;;;;;5039537;28;20080;-71
2023/09/14 06:27:06;;;;;;;18.25;11.07;;;;;;;;;;5044376;28;20850;-71
2023/09/14 06:29:31;;;;;;;16.90;11.38;;;;;;;;;;5047518;28;20082;-71
2023/09/14 06:31:57;;;;;;;25.73;12.15;;;;;;;;;;5044745;28;20905;-71
2023/09/14 06:34:22;;;;;;;20.42;12.63;;;;;;;;;;5059142;28;20020;-71
2023/09/14 06:36:48;;;;;;;20.70;11.88;;;;;;;;;;5086881;28;20042;-70
2023/09/14 06:39:15;;;;;;;17.73;13.23;;;;;;;;;;5087119;28;20024;-71
2023/09/14 06:41:40;;;;;;;19.92;12.70;;;;;;;;;;5075909;28;20274;-71
2023/09/14 06:44:05;;;;;;;21.15;12.48;;;;;;;;;;5087877;28;20027;-70
2023/09/14 06:46:31;;;;;;;16.75;12.40;;;;;;;;;;5073922;28;20027;-71
2023/09/14 06:48:56;;;;;;;18.23;12.77;;;;;;;;;;5081201;28;20062;-71
2023/09/14 06:51:21;;;;;;;17.90;13.20;;;;;;;;;;5074517;28;20016;-71
2023/09/14 06:53:47;;;;;;;19.50;12.68;;;;;;;;;;5072259;28;20286;-71
2023/09/14 06:56:13;;;;;;;17.27;12.25;;;;;;;;;;5087666;28;20020;-70
2023/09/14 06:58:38;;;;;;;19.25;13.38;;;;;;;;;;5091529;28;20450;-70
2023/09/14 07:01:04;;;;;;;20.42;13.73;;;;;;;;;;5083037;28;20076;-71
2023/09/14 07:03:34;;;;;;;20.27;14.10;;;;;;;;;;5079368;28;20028;-70
2023/09/14 07:05:59;;;;;;;18.52;13.45;;;;;;;;;;5073490;28;20471;-70
2023/09/14 07:08:24;;;;;;;17.55;12.88;;;;;;;;;;5076958;28;20020;-71
2023/09/14 07:10:50;;;;;;;17.05;13.23;;;;;;;;;;5074677;28;20095;-71
2023/09/14 07:13:15;;;;;;;20.05;14.10;;;;;;;;;;5076140;28;20058;-71
2023/09/14 07:15:40;;;;;;;20.13;13.73;;;;;;;;;;5084365;28;20020;-71
2023/09/14 07:18:06;;;;;;;23.05;15.60;;;;;;;;;;5087207;28;20017;-71
2023/09/14 07:20:31;;;;;;;20.75;14.90;;;;;;;;;;5075419;28;20086;-71
2023/09/14 07:22:57;;;;;;;24.30;15.43;;;;;;;;;;5077517;28;20024;-71
2023/09/14 07:25:23;;;;;;;21.85;16.60;;;;;;;;;;5075100;28;20032;-71
2023/09/14 07:27:48;;;;;;;24.67;15.18;;;;;;;;;;5086962;28;20028;-71
2023/09/14 07:30:14;;;;;;;31.63;16.77;;;;;;;;;;5075139;28;20024;-71
2023/09/14 07:32:40;;;;;;;22.90;15.88;;;;;;;;;;5078019;28;20351;-71
2023/09/14 07:35:06;;;;;;;24.38;17.10;;;;;;;;;;5084895;28;20099;-70
2023/09/14 07:37:31;;;;;;;26.02;19.00;;;;;;;;;;5076383;28;20616;-71
2023/09/14 07:39:56;;;;;;;24.57;18.67;;;;;;;;;;5081047;28;20012;-70
2023/09/14 07:42:22;;;;;;;25.67;19.23;;;;;;;;;;5082084;28;20270;-70
2023/09/14 07:44:47;;;;;;;26.38;18.02;;;;;;;;;;5091956;28;20290;-69
2023/09/14 07:47:12;;;;;;;22.92;17.40;;;;;;;;;;5075105;28;20376;-70
2023/09/14 07:49:37;;;;;;;20.35;16.20;;;;;;;;;;5075643;28;20058;-70
2023/09/14 07:52:03;;;;;;;22.15;15.00;;;;;;;;;;5094330;28;20036;-70
2023/09/14 07:54:28;;;;;;;24.75;16.23;;;;;;;;;;5092249;28;20455;-71
2023/09/14 07:56:53;;;;;;;22.40;15.77;;;;;;;;;;5086294;28;20429;-71
2023/09/14 07:59:19;;;;;;;22.07;16.03;;;;;;;;;;5090037;28;20020;-71
2023/09/14 08:01:44;;;;;;;23.47;16.73;;;;;;;;;;5080009;28;20281;-71
2023/09/14 08:04:09;;;;;;;25.10;17.90;;;;;;;;;;5087507;28;20269;-70
2023/09/14 08:06:34;;;;;;;29.10;17.77;;;;;;;;;;5088144;28;20031;-71
2023/09/14 08:09:01;;;;;;;24.95;17.17;;;;;;;;;;5086520;28;20298;-71
2023/09/14 08:11:27;;;;;;;24.45;18.45;;;;;;;;;;5088278;28;20452;-72
2023/09/14 08:13:53;;;;;;;25.00;17.63;;;;;;;;;;5074758;28;20124;-72
2023/09/14 08:16:18;;;;;;;25.25;17.70;;;;;;;;;;5088482;28;20095;-71
2023/09/14 08:18:43;;;;;;;31.48;18.63;;;;;;;;;;5064929;28;20033;-72
2023/09/14 08:21:09;;;;;;;24.80;17.55;;;;;;;;;;5085070;28;20024;-72
2023/09/14 08:23:35;;;;;;;23.30;17.10;;;;;;;;;;5086166;28;20046;-72
2023/09/14 08:26:03;;;;;;;30.05;19.50;;;;;;;;;;5086406;28;20409;-72
2023/09/14 08:28:28;;;;;;;27.17;18.23;;;;;;;;;;5080124;28;20061;-71
2023/09/14 08:30:54;;;;;;;22.67;16.60;;;;;;;;;;5085549;28;20059;-72
2023/09/14 08:33:20;;;;;;;21.05;16.23;;;;;;;;;;5080595;28;20312;-72
2023/09/14 08:35:45;;;;;;;20.58;15.88;;;;;;;;;;5087127;28;20012;-71
2023/09/14 08:38:11;;;;;;;22.90;16.33;;;;;;;;;;5081571;28;20074;-71
2023/09/14 08:40:36;;;;;;;17.70;13.48;;;;;;;;;;5064636;28;20214;-71
2023/09/14 08:43:02;;;;;;;20.15;14.77;;;;;;;;;;5055945;28;20438;-71
2023/09/14 08:45:29;;;;;;;19.42;13.60;;;;;;;;;;5093061;28;20421;-70
2023/09/14 08:47:55;;;;;;;18.35;13.98;;;;;;;;;;5077197;28;20108;-71
2023/09/14 08:50:22;;;;;;;19.23;13.50;;;;;;;;;;5070934;28;20120;-70
2023/09/14 08:52:47;;;;;;;18.75;13.90;;;;;;;;;;5091671;28;20467;-70
2023/09/14 08:55:14;;;;;;;20.20;14.20;;;;;;;;;;5082174;28;20108;-71
2023/09/14 08:57:40;;;;;;;16.23;13.82;;;;;;;;;;5085535;28;20092;-70
2023/09/14 09:00:14;;;;;;;20.08;14.95;;;;;;;;;;5086687;28;20050;-70
2023/09/14 09:02:39;;;;;;;19.50;14.85;;;;;;;;;;5083777;28;20024;-71
2023/09/14 09:05:05;;;;;;;19.30;14.32;;;;;;;;;;5059673;28;20025;-71
2023/09/14 09:07:30;;;;;;;20.73;14.68;;;;;;;;;;5079471;28;20047;-70
2023/09/14 09:09:56;;;;;;;20.35;14.98;;;;;;;;;;5083019;28;20367;-71
2023/09/14 09:12:21;;;;;;;17.20;14.13;;;;;;;;;;5086992;28;20038;-71
2023/09/14 09:14:47;;;;;;;17.55;14.15;;;;;;;;;;5083144;28;20479;-71
2023/09/14 09:17:12;;;;;;;21.00;15.98;;;;;;;;;;5077953;28;20056;-72
2023/09/14 09:19:47;;;;;;;16.90;14.20;;;;;;;;;;5085793;28;20064;-72
2023/09/14 09:22:14;;;;;;;18.33;14.32;;;;;;;;;;5086063;28;20270;-72
2023/09/14 09:24:40;;;;;;;22.13;14.55;;;;;;;;;;5082622;28;20031;-72
2023/09/14 09:27:23;;;;;;;18.30;14.10;;;;;;;;;;5089947;28;20020;-71
2023/09/14 09:29:50;;;;;;;21.92;16.60;;;;;;;;;;5083615;28;20386;-71
2023/09/14 09:32:21;;;;;;;19.75;15.25;;;;;;;;;;5080934;28;20054;-72
2023/09/14 09:34:47;;;;;;;17.83;15.25;;;;;;;;;;5084189;28;20037;-71
2023/09/14 09:37:12;;;;;;;20.03;16.20;;;;;;;;;;5086406;28;20437;-73
2023/09/14 09:39:37;;;;;;;18.30;15.33;;;;;;;;;;5082617;28;20331;-72
2023/09/14 09:42:03;;;;;;;16.73;14.57;;;;;;;;;;5091089;28;20273;-72
2023/09/14 09:44:29;;;;;;;19.65;14.55;;;;;;;;;;5090224;28;20272;-72
2023/09/14 09:46:57;;;;;;;17.70;13.25;;;;;;;;;;5092117;28;20364;-72
2023/09/14 09:49:24;;;;;;;16.38;11.95;;;;;;;;;;5082086;28;20024;-73
2023/09/14 09:51:50;;;;;;;15.95;8.45;;;;;;;;;;5085480;28;20454;-72
2023/09/14 09:54:18;;;;;;;13.00;6.47;;;;;;;;;;5089411;28;20052;-73
2023/09/14 09:56:44;;;;;;;12.80;8.30;;;;;;;;;;5078052;28;20051;-71
2023/09/14 09:59:10;;;;;;;11.82;8.32;;;;;;;;;;5085423;28;20024;-72
2023/09/14 10:01:44;;;;;;;17.33;11.57;;;;;;;;;;5089847;28;20118;-72
2023/09/14 10:04:13;;;;;;;19.73;13.85;;;;;;;;;;5072068;28;20024;-72
2023/09/14 10:06:38;;;;;;;13.52;10.40;;;;;;;;;;5071599;28;20025;-72
2023/09/14 10:09:07;;;;;;;13.20;10.60;;;;;;;;;;5063073;28;20023;-73
2023/09/14 10:11:34;;;;;;;12.20;8.80;;;;;;;;;;5088222;28;20036;-73
2023/09/14 10:14:02;;;;;;;10.05;8.13;;;;;;;;;;5079569;28;20028;-73
2023/09/14 10:16:37;;;;;;;11.43;8.38;;;;;;;;;;5092184;28;20067;-70
2023/09/14 10:19:04;;;;;;;12.20;8.30;;;;;;;;;;5096430;28;20530;-72
2023/09/14 10:21:30;;;;;;;12.95;9.68;;;;;;;;;;5068217;28;20024;-71
2023/09/14 10:23:56;;;;;;;9.77;7.93;;;;;;;;;;5086911;28;20031;-72
2023/09/14 10:26:21;;;;;;;10.02;7.68;;;;;;;;;;5069916;28;20039;-71
2023/09/14 10:28:47;;;;;;;8.05;5.80;;;;;;;;;;5092639;28;20016;-71
2023/09/14 10:31:13;;;;;;;10.02;5.75;;;;;;;;;;5085007;28;20028;-71
2023/09/14 10:33:42;;;;;;;4.93;3.22;;;;;;;;;;5083593;28;20040;-70
2023/09/14 10:36:09;;;;;;;6.53;5.07;;;;;;;;;;5086120;28;20095;-71
2023/09/14 10:38:34;;;;;;;9.65;7.05;;;;;;;;;;5081976;28;20020;-71
2023/09/14 10:41:00;;;;;;;7.40;6.07;;;;;;;;;;5079746;28;20028;-71
2023/09/14 10:43:25;;;;;;;9.85;6.47;;;;;;;;;;5077415;28;20421;-71
2023/09/14 10:45:56;;;;;;;6.80;4.87;;;;;;;;;;5079263;28;20085;-72
2023/09/14 10:48:21;;;;;;;7.05;4.57;;;;;;;;;;5090731;28;20705;-72
2023/09/14 10:50:49;;;;;;;6.20;4.55;;;;;;;;;;5090554;28;20094;-72
2023/09/14 10:53:15;;;;;;;8.85;5.95;;;;;;;;;;5089974;28;20111;-72
2023/09/14 10:55:41;;;;;;;8.35;5.75;;;;;;;;;;5090860;28;20451;-72
2023/09/14 10:58:11;;;;;;;11.30;5.80;;;;;;;;;;5088963;28;20016;-71
2023/09/14 11:00:36;;;;;;;7.03;5.38;;;;;;;;;;5090787;28;20103;-72
2023/09/14 11:03:02;;;;;;;6.53;5.20;;;;;;;;;;5085036;28;20100;-72
2023/09/14 11:05:41;;;;;;;7.97;5.10;;;;;;;;;;5083320;28;20024;-72
2023/09/14 11:08:07;;;;;;;4.97;4.35;;;;;;;;;;5084097;28;20046;-71
2023/09/14 11:10:37;;;;;;;7.40;5.88;;;;;;;;;;5082663;28;20416;-71
2023/09/14 11:13:20;;;;;;;7.97;5.85;;;;;;;;;;5044702;28;20020;-71
2023/09/14 11:16:06;;;;;;;8.52;6.70;;;;;;;;;;5035144;28;21004;-72
2023/09/14 11:18:43;;;;;;;8.55;6.85;;;;;;;;;;5044735;28;20040;-72
2023/09/14 11:21:27;;;;;;;11.30;7.93;;;;;;;;;;5048847;28;20020;-72
2023/09/14 11:23:56;;;;;;;7.93;6.77;;;;;;;;;;5029337;28;20043;-72
2023/09/14 11:26:28;;;;;;;9.10;6.70;;;;;;;;;;5035832;28;20293;-71
2023/09/14 11:28:54;;;;;;;12.77;8.18;;;;;;;;;;5087588;28;20024;-72
2023/09/14 11:31:27;;;;;;;9.50;7.40;;;;;;;;;;5088682;28;20024;-72
2023/09/14 11:33:53;;;;;;;8.30;6.80;;;;;;;;;;5071195;28;20036;-72
2023/09/14 11:36:19;;;;;;;9.57;6.35;;;;;;;;;;5088666;28;20438;-71
2023/09/14 11:38:44;;;;;;;10.20;6.03;;;;;;;;;;5090737;28;20078;-72
2023/09/14 11:41:29;;;;;;;9.93;6.28;;;;;;;;;;5088887;28;20028;-72
2023/09/14 11:44:04;;;;;;;6.78;5.45;;;;;;;;;;5090479;28;20085;-72
2023/09/14 11:46:31;;;;;;;9.55;6.80;;;;;;;;;;5088517;28;20028;-72
2023/09/14 11:48:56;;;;;;;8.50;6.43;;;;;;;;;;5079366;28;20428;-72
2023/09/14 11:51:24;;;;;;;9.90;7.93;;;;;;;;;;5084096;28;20100;-72
2023/09/14 11:53:50;;;;;;;8.55;6.65;;;;;;;;;;5071016;28;20059;-72
2023/09/14 11:56:18;;;;;;;10.07;8.20;;;;;;;;;;5074242;28;20021;-73
2023/09/14 11:58:44;;;;;;;10.48;7.82;;;;;;;;;;5084909;28;20016;-72
2023/09/14 12:01:09;;;;;;;9.77;7.68;;;;;;;;;;5090053;28;20069;-73
2023/09/14 12:03:37;;;;;;;9.88;7.70;;;;;;;;;;5088982;28;20020;-72
2023/09/14 12:06:03;;;;;;;10.23;8.00;;;;;;;;;;5089689;28;20035;-72
2023/09/14 12:08:28;;;;;;;8.35;7.38;;;;;;;;;;5071900;28;20107;-72
2023/09/14 12:10:55;;;;;;;7.67;6.50;;;;;;;;;;5081093;28;20127;-73
2023/09/14 12:13:20;;;;;;;8.32;6.60;;;;;;;;;;5087509;28;20278;-72
2023/09/14 12:15:48;;;;;;;9.23;7.43;;;;;;;;;;5088737;28;20108;-72
2023/09/14 12:18:16;;;;;;;9.20;7.68;;;;;;;;;;5087927;28;20082;-74
2023/09/14 12:20:44;;;;;;;8.43;6.80;;;;;;;;;;5087436;28;20489;-71
2023/09/14 12:23:09;;;;;;;10.32;7.47;;;;;;;;;;5086041;28;20029;-70
2023/09/14 12:25:36;;;;;;;9.07;6.70;;;;;;;;;;5071912;28;20044;-74
2023/09/14 12:28:03;;;;;;;8.73;6.35;;;;;;;;;;5080734;28;20073;-74
2023/09/14 12:30:29;;;;;;;8.25;6.25;;;;;;;;;;5092537;28;20146;-74
2023/09/14 12:32:54;;;;;;;9.18;5.70;;;;;;;;;;5092036;28;20739;-74
2023/09/14 12:35:21;;;;;;;7.85;6.07;;;;;;;;;;5091846;28;20045;-74
2023/09/14 12:37:47;;;;;;;9.27;6.43;;;;;;;;;;5081994;28;20024;-75
2023/09/14 12:40:15;;;;;;;8.27;5.72;;;;;;;;;;5083933;28;20407;-75
2023/09/14 12:42:42;;;;;;;7.65;5.53;;;;;;;;;;5075899;28;20059;-74
2023/09/14 12:45:08;;;;;;;7.85;5.43;;;;;;;;;;5090442;28;20044;-74
2023/09/14 12:47:33;;;;;;;7.40;5.32;;;;;;;;;;5080313;28;20024;-74
2023/09/14 12:49:59;;;;;;;7.50;5.60;;;;;;;;;;5065968;28;20391;-74
2023/09/14 12:52:27;;;;;;;9.52;5.70;;;;;;;;;;5083415;28;20126;-74
2023/09/14 12:54:53;;;;;;;6.45;4.22;;;;;;;;;;5076927;28;20036;-74
2023/09/14 12:57:19;;;;;;;9.00;5.28;;;;;;;;;;5078385;28;20364;-73
2023/09/14 13:00:11;;;;;;;8.43;4.53;;;;;;;;;;5088090;28;20019;-74
2023/09/14 13:02:38;;;;;;;7.68;5.47;;;;;;;;;;5086088;28;20058;-74
2023/09/14 13:05:04;;;;;;;7.05;5.18;;;;;;;;;;5078760;28;20081;-73
2023/09/14 13:07:30;;;;;;;8.13;5.75;;;;;;;;;;5077039;28;20033;-72
2023/09/14 13:10:07;;;;;;;6.40;5.22;;;;;;;;;;5076665;28;20016;-72
2023/09/14 13:12:32;;;;;;;5.72;4.18;;;;;;;;;;5073342;28;20059;-72
2023/09/14 13:14:57;;;;;;;6.38;4.72;;;;;;;;;;5078200;28;20451;-72
2023/09/14 13:17:23;;;;;;;7.70;4.88;;;;;;;;;;5075178;28;20028;-73
2023/09/14 13:19:48;;;;;;;6.97;5.10;;;;;;;;;;5075493;28;20067;-72
2023/09/14 13:22:14;;;;;;;7.63;5.00;;;;;;;;;;5077133;28;20776;-72
2023/09/14 13:24:40;;;;;;;7.53;4.72;;;;;;;;;;5077549;28;20289;-73
2023/09/14 13:27:05;;;;;;;7.38;5.13;;;;;;;;;;5079421;28;20428;-72
2023/09/14 13:29:30;;;;;;;6.07;4.53;;;;;;;;;;5075909;28;20443;-73
2023/09/14 13:31:56;;;;;;;5.73;4.63;;;;;;;;;;5082786;28;20074;-73
2023/09/14 13:34:21;;;;;;;6.00;4.33;;;;;;;;;;5079943;28;20794;-73
2023/09/14 13:36:46;;;;;;;6.28;4.78;;;;;;;;;;5079705;28;20289;-73
2023/09/14 13:39:12;;;;;;;6.20;4.10;;;;;;;;;;5087412;28;20016;-74
2023/09/14 13:41:38;;;;;;;5.78;3.92;;;;;;;;;;5081537;28;20753;-73
2023/09/14 13:44:03;;;;;;;5.00;3.80;;;;;;;;;;5091546;28;20032;-71
2023/09/14 13:46:28;;;;;;;5.95;3.85;;;;;;;;;;5092420;28;20024;-73
2023/09/14 13:48:56;;;;;;;7.83;4.80;;;;;;;;;;5085421;28;20449;-72
2023/09/14 13:51:22;;;;;;;6.75;4.75;;;;;;;;;;5079919;28;20625;-72
2023/09/14 13:53:47;;;;;;;6.13;4.53;;;;;;;;;;5089432;28;20024;-72
2023/09/14 13:56:12;;;;;;;6.20;4.40;;;;;;;;;;5090925;28;20016;-72
2023/09/14 13:58:38;;;;;;;4.87;3.70;;;;;;;;;;5091069;28;20106;-70
2023/09/14 14:01:03;;;;;;;9.30;4.00;;;;;;;;;;5083152;28;20602;-72
2023/09/14 14:03:29;;;;;;;6.13;4.30;;;;;;;;;;5091555;28;20024;-68
2023/09/14 14:05:54;;;;;;;7.03;4.40;;;;;;;;;;5084446;28;20120;-68
2023/09/14 14:08:19;;;;;;;4.90;3.65;;;;;;;;;;5090269;28;20278;-68
2023/09/14 14:10:45;;;;;;;7.27;4.33;;;;;;;;;;5076544;28;20027;-68
2023/09/14 14:13:10;;;;;;;4.20;3.30;;;;;;;;;;5089369;28;20368;-69
2023/09/14 14:15:36;;;;;;;5.23;3.80;;;;;;;;;;5082815;28;20293;-68
2023/09/14 14:18:01;;;;;;;7.43;3.40;;;;;;;;;;5083917;28;20278;-68
2023/09/14 14:20:26;;;;;;;6.40;4.00;;;;;;;;;;5079282;28;20012;-69
2023/09/14 14:22:52;;;;;;;6.97;4.30;;;;;;;;;;5075834;28;20435;-72
2023/09/14 14:25:17;;;;;;;4.43;3.55;;;;;;;;;;5079369;28;20383;-72
2023/09/14 14:27:42;;;;;;;5.57;3.95;;;;;;;;;;5082819;28;20016;-72